Pagrindinis puslapis
METAR-TAF:

METAR-TAF

Oro uostai :

North Kingstown, Rod Ailandas, Jungtinės Amerikos Valstijos

platuma: 41-36N, ilguma: 071-25W, Aukštis: 6 m

Dabartinis oras

Ataskaita buvo paskelbta 2 valandos ir 57 minutes, ne 03:50 UTC
Vėjas 19 kt iš Vakarų/Šiaurės Vakarų
Temperatūra 0°C
Drėgmė 37%
Slėgis 1005 hPa
Matomumas: 16.1 km
Su prošvaistėmis ne aukštis 6500 ft

METAR: KOQU 280350Z 30019KT 10SM BKN065 00/M13 A2967 RMK LAST

Laikas: 01:47 (06:47 UTC)


TAF: trūkstamas

Orai ataskaitas ir orų prognozės (METAR, TAF).

turimą stotys yra geltonos ir raudonos taškus žemėlapyje.

Perkelti pele per norėdami pamatyti stoties vardą.

Tada spustelėkite, norėdami matyti oro stebėjimo ir prognozės.

Norėdami pakeisti žemėlapį: spustelėkite ant žalios mygtukų su juodo kryžiaus žemyn,; žalią mygtuką su brūkšneliu, jei norite nutolinti; arba žalių rodyklių gretimoms žemėlapius.


METAR-TAF: